Central Sierra Snow Lab Weather observations

Data are for 10 minute period ending at time listed.
 Day   Time    Incoming  Reflected   Ave.   Ave.    Ave.    Vector  Max.    Ave.    Total    Snow   
  of    of      Solar     Solar      Air    Rel.    Wind    Wind    Wind   Baro.   Precip.   Depth  
Year   Day     Radiation Radiation   Temp.  Humid.  Speed   Dir.    Gust   Press.                   
2017   (PST)    Kw/m2     Kw/m2       F       %      mph     deg.    mph     mb.     in.      in.   
----------------------------------------------------------------------------------------------------
 349   18:10    0.000     999.000     41.8     23     1.5     282     5.4   792.30   18.12   164.90  
 349   18:20    0.000     999.000     41.0     25     0.8      37     1.7   792.20   18.12   164.90  
 349   18:30    0.000     999.000     40.7     24     0.8     350     2.5   792.00   18.12   164.90  
 349   18:40    0.000     999.000     40.9     24     2.0     210     4.0   791.60   18.12   164.90  
 349   18:50    0.000     999.000     40.3     25     1.4     177     4.0   791.80   18.12   164.90  
 349   19:00    0.000     999.000     41.0     24     1.4     114     3.3   791.60   18.12   164.90  
 349   19:10    0.000     999.000     40.8     24     0.6     152     2.5   791.10   18.12   164.90  
 349   19:20    0.000     999.000     39.9     27     1.9     301     9.9   791.10   18.12   164.90  
 349   19:30    0.000     999.000     40.7     24     2.2     260     6.5   791.10   18.12   164.90  
 349   19:40    0.000     999.000     41.3     22     2.2     230     6.1   791.10   18.12   164.90  
 349   19:50    0.000     999.000     41.1     23     0.3     164     2.5   791.10   18.12   164.90  
 349   20:00    0.000     999.000     40.4     24     1.4     307     5.3   791.20   18.12   164.90  
 349   20:10    0.000     999.000     40.6     23     0.8     321     2.5   791.00   18.12   164.90  
 349   20:20    0.000     999.000     40.3     23     2.2     311     5.8   791.00   18.12   164.90  
 349   20:30    0.000     999.000     40.4     25     1.2     299     3.7   790.90   18.12   164.90  
 349   20:40    0.000     999.000     39.5     26     0.5      60     1.7   790.60   18.12   164.90  
 349   20:50    0.000     999.000     39.1     24     1.1     166     2.9   790.50   18.12   164.90  
 349   21:00    0.000     999.000     39.4     25     1.4     265     5.0   790.60   18.12   164.90  
 349   21:10    0.000     999.000     39.6     25     1.1     214     5.1   790.80   18.12   164.90  
 349   21:20    0.000     999.000     39.9     24     1.3     169     4.3   790.80   18.12   164.90  
 349   21:30    0.000     999.000     39.6     24     0.7     176     2.9   790.60   18.12   164.90  
 349   21:40    0.000     999.000     39.0     25     1.0     205     3.3   790.40   18.12   164.90  
 349   21:50    0.000     999.000     38.7     27     1.4     231     5.8   790.40   18.12   164.90  
 349   22:00    0.000     999.000     38.4     27     0.5     187     2.2   790.20   18.12   164.90  
 349   22:10    0.000     999.000     37.9     29     1.1      18     2.8   790.00   18.12   164.90  
 349   22:20    0.000     999.000     37.3     30     0.8      26     3.0   789.90   18.12   165.00  
 349   22:30    0.000     999.000     37.0     30     1.1      39     2.6   789.80   18.12   164.90  
 349   22:40    0.000     999.000     36.9     33     1.1      30     2.6   789.70   18.12   164.90  
 349   22:50    0.000     999.000     36.4     35     1.2      62     2.3   789.60   18.12   165.10  
 349   23:00    0.000     999.000     36.2     35     0.8      68     1.7   789.30   18.12   164.90  
 349   23:10    0.000     999.000     36.1     36     0.5      51     1.9   789.10   18.12   124.30  
 349   23:20    0.000     999.000     35.8     35     1.5      26     3.1   788.90   18.12   30.80  
 349   23:30    0.000     999.000     35.7     39     0.3     328     2.2   788.90   18.12    0.10  
 349   23:40    0.000     999.000     35.4     39     0.5      14     1.8   788.90   18.12   40.60  
 349   23:50    0.000     999.000     35.4     38     1.3      23     3.3   788.70   18.12   71.20  
 350    0:00    0.000     999.000     35.4     43     1.6      55     3.6   788.50   18.12   -2.60  
 350    0:10    0.000     999.000     35.9     53     0.9      21     3.0   788.40   18.12   -2.50  
 350    0:20    0.000     999.000     35.8     57     0.4      17     1.8   788.30   18.12   -2.70  
 350    0:30    0.000     999.000     35.3     61     0.3     358     1.4   788.30   18.13   -2.70  
 350    0:40    0.000     999.000     34.8     64     1.1     100     2.0   788.20   18.13   -2.60  
 350    0:50    0.000     999.000     34.6     67     1.7      35     4.7   788.10   18.13   -2.60  
 350    1:00    0.000     999.000     34.0     67     2.3      28     5.6   788.00   18.12   -2.60  
 350    1:10    0.000     999.000     33.1     67     3.2      51     8.3   788.00   18.13   -2.60  
 350    1:20    0.000     999.000     32.3     71     3.0      52     7.3   787.90   18.13   -2.60  
 350    1:30    0.000     999.000     31.9     73     2.7      63     8.4   787.90   18.13   -2.40  
 350    1:40    0.000     999.000     31.5     75     2.2      65     6.5   787.90   18.13   -2.40  
 350    1:50    0.000     999.000     31.2     77     2.7      52     9.7   787.90   18.13   -2.50  
 350    2:00    0.000     999.000     30.9     79     4.6      76    10.4   787.70   18.13   -2.40  
 350    2:10    0.000     999.000     30.8     78     4.1      87    13.0   787.70   18.13   -2.30  
 350    2:20    0.000     999.000     31.0     70     4.3      80     9.7   787.80   18.13   -2.40  
 350    2:30    0.000     999.000     31.3     64     4.5      84    12.1   787.70   18.12   -2.50  
 350    2:40    0.000     999.000     31.2     63     4.1      98    10.9   787.70   18.13   -2.40  
 350    2:50    0.000     999.000     31.0     64     3.6      80    12.3   787.70   18.12   -2.40  
 350    3:00    0.000     999.000     30.8     65     3.2      77     9.3   787.50   18.13   -2.40  
 350    3:10    0.000     999.000     30.3     69     2.5     104    11.3   787.60   18.13   -2.40  
 350    3:20    0.000     999.000     29.7     74     4.5      85    10.4   787.40   18.13   -2.50  
 350    3:30    0.000     999.000     29.4     77     3.9      77    12.1   787.30   18.13   -2.50  
 350    3:40    0.000     999.000     29.2     78     4.6      88    13.5   787.40   18.13   -2.50  
 350    3:50    0.000     999.000     29.1     79     4.5      92    11.7   787.20   18.13   -2.50  
 350    4:00    0.000     999.000     29.1     78     3.5      99    10.4   787.20   18.13   -2.50  
 350    4:10    0.000     999.000     29.1     78     3.3      74    11.3   787.10   18.13   -2.50  
 350    4:20    0.000     999.000     29.0     76     4.0      79    13.7   787.10   18.13   -2.50  
 350    4:30    0.000     999.000     28.9     77     3.4     118    10.0   787.10   18.13   -2.60  
 350    4:40    0.000     999.000     28.6     77     4.3     131    12.2   787.10   18.13   -2.60  
 350    4:50    0.000     999.000     28.3     79     3.6     144    10.3   787.00   18.13   -2.50  
 350    5:00    0.000     999.000     28.1     80     3.1     121     7.8   787.00   18.13   -2.50  
 350    5:10    0.000     999.000     27.8     81     4.0      87    12.2   786.90   18.14   -2.50  
 350    5:20    0.000     999.000     27.4     82     3.9      70    11.4   787.00   18.14   -2.50  
 350    5:30    0.000     999.000     27.2     80     3.8      98     9.3   786.90   18.13   -2.50  
 350    5:40    0.000     999.000     27.0     76     4.4      58    12.4   786.70   18.14   -2.60  
 350    5:50    0.000     999.000     26.7     74     3.6     108    11.6   786.60   18.13   -2.50  
 350    6:00    0.000     999.000     26.4     72     3.9      97    11.5   786.50   18.14   -2.40  
 350    6:10    0.000     999.000     26.0     72     4.7      80    14.4   786.40   18.14   -2.50  
 350    6:20    0.000     999.000     25.7     74     4.0      96    12.9   786.30   18.12   -2.40  
 350    6:30    0.000     999.000     25.5     75     5.0      81    13.1   786.10   18.13   -2.40  
 350    6:40    0.000     999.000     25.2     75     5.9      83    16.8   785.90   18.13   -2.50  
 350    6:50    0.000     999.000     24.9     75     6.4      79    15.1   785.70   18.13   -2.50  
 350    7:00    0.000     999.000     24.6     76     6.1      72    18.9   785.50   18.14   -2.50  
 350    7:10    0.001     999.000     24.3     76     6.6      89    16.3   785.40   18.13   -2.50  
 350    7:20    0.002     999.000     24.1     76     4.6      76    14.9   785.40   18.14   -2.50  
 350    7:30    0.004     999.000     24.0     74     5.5      70    20.2   785.30   18.14   -2.50  
 350    7:40    0.006     999.000     24.2     70     6.1      77    16.5   785.30   18.13   -2.50  
 350    7:50    0.008     999.000     24.2     66     4.7      77    11.8   785.30   18.13   -2.50  
 350    8:00    0.010     999.000     24.3     63     4.8      84    12.5   785.20   18.13   -2.50  
 350    8:10    0.011     999.000     24.2     60     4.3      68    15.2   785.30   18.13   -2.50  
 350    8:20    0.013     999.000     24.2     59     4.1     106    11.4   785.40   18.13   -2.50  
 350    8:30    0.016     999.000     24.2     60     6.1      74    14.4   785.40   18.14   -2.50  
 350    8:40    0.018     999.000     24.2     60     4.0      83    14.2   785.50   18.14   -2.50  
 350    8:50    0.020     999.000     24.2     60     4.8      90    16.1   785.60   18.13   -2.50  
 350    9:00    0.025     999.000     24.3     61     5.4      78    15.0   785.80   18.14   -2.50  
 350    9:10    0.026     999.000     24.9     59     5.7      69    16.4   785.70   18.13   -2.50  
 350    9:20    0.235     999.000     25.1     60     4.7      61    14.1   785.80   18.13   -2.50  
 350    9:30    0.295     999.000     24.8     62     5.1      62    16.5   786.00   18.13   -2.80  
 350    9:40    0.220     999.000     24.8     62     6.7      59    19.7   786.00   18.13   -3.10  
 350    9:50    0.345     999.000     25.1     61     6.9      82    16.6   785.90   18.13   -3.10  
 350   10:00    0.338     999.000     25.5     59     5.3      90    14.7   785.80   18.14   98.90  
 350   10:10    0.350     999.000     25.9     55     6.4      94    22.5   785.80   18.14   165.00  
 350   10:20    0.386     999.000     26.1     54     6.1      93    13.3   785.60   18.14   165.10  
 350   10:30    0.416     999.000     26.2     53     6.1      86    14.2   785.60   18.14   165.10  
 350   10:40    0.372     999.000     26.0     51     6.7      93    18.1   785.70   18.14   165.10  
 350   10:50    0.442     999.000     25.7     54     7.8      86    19.5   785.90   18.14   165.10  
 350   11:00    0.455     999.000     25.4     53     7.2      86    17.8   785.90   18.13   165.10  
 350   11:10    0.465     999.000     25.6     52     7.8      91    22.9   785.90   18.14   165.10  
 350   11:20    0.472     999.000     25.7     52     7.6      80    21.8   785.90   18.13   165.10  
 350   11:30    0.481     999.000     25.9     50     7.9      93    20.7   785.90   18.14   165.40  
 350   11:40    0.487     999.000     26.3     48     7.7      88    18.9   785.80   18.13   165.10  
 350   11:50    0.488     999.000     26.2     50     7.9      94    19.4   785.90   18.12   165.30  
 350   12:00    0.488     999.000     26.2     52     7.4      84    18.0   785.80   18.13   165.40  
 350   12:10    0.489     999.000     26.1     54     8.4      78    18.2   785.70   18.13   165.20  
 350   12:20    0.488     999.000     25.9     53     8.7      88    19.9   785.70   18.13   165.20  
 350   12:30    0.485     999.000     25.8     55     7.3      97    17.1   785.50   18.13   165.50  
 350   12:40    0.481     999.000     26.3     54     6.2     100    18.6   785.40   18.13   165.50  
 350   12:50    0.475     999.000     26.6     52     6.3      80    20.4   785.10   18.13   165.20  
 350   13:00    0.467     999.000     27.0     52     7.4      88    19.4   785.10   18.13   165.10  
 350   13:10    0.458     999.000     27.0     52     6.4      66    24.6   785.10   18.14   165.50  
 350   13:20    0.447     999.000     27.2     51     5.8      95    13.8   785.00   18.14   165.20  
 350   13:30    0.435     999.000     27.0     51     6.3      74    20.3   785.00   18.14   165.20  
 350   13:40    0.420     999.000     27.2     50     6.4      95    21.8   784.90   18.14   165.10  
 350   13:50    0.404     999.000     26.8     51     8.3      79    23.2   784.90   18.13   165.60  
 350   14:00    0.388     999.000     26.9     51     8.1      90    19.2   785.00   18.14   165.70  
 350   14:10    0.170     999.000     27.0     51     6.7     100    18.2   784.80   18.13   165.10  
 350   14:20    0.279     999.000     26.9     49     7.8      92    24.0   784.90   18.14   165.10  
 350   14:30    0.283     999.000     26.9     50     6.6      98    19.2   785.10   18.14   165.10  
 350   14:40    0.069     999.000     26.6     52     7.0     101    18.5   785.20   18.13   165.10  
 350   14:50    0.054     999.000     26.4     52     7.7     100    20.5   785.30   18.13   165.20  
 350   15:00    0.025     999.000     25.8     53     6.3      97    16.2   785.30   18.13   164.80  
 350   15:10    0.026     999.000     25.5     53     8.0      94    20.1   785.30   18.13   162.70  
 350   15:20    0.027     999.000     25.2     55     6.1      79    18.9   785.30   18.13   161.50  
 350   15:30    0.021     999.000     24.7     59     6.5      63    15.6   785.40   18.13   107.90  
 350   15:40    0.020     999.000     24.1     62     7.6      81    25.3   785.40   18.14   -1.40  
 350   15:50    0.018     999.000     23.9     63     6.1      91    21.3   785.60   18.12   -2.80  
 350   16:00    0.017     999.000     23.6     65     6.7      94    17.3   785.70   18.12    9.80  
 350   16:10    0.014     999.000     23.4     65     8.5      81    18.3   785.80   18.13   -2.80  
 350   16:20    0.011     999.000     23.1     66     7.8      90    24.9   785.70   18.13   -2.90  
 350   16:30    0.007     999.000     22.6     67     6.0      86    17.8   785.90   18.11   -2.90  
 350   16:40    0.005     999.000     22.1     68     6.9      84    22.8   785.90   18.11   -2.90  
 350   16:50    0.003     999.000     21.9     68     7.5      97    16.8   786.10   18.13   -2.70  
 350   17:00    0.001     999.000     21.7     67     7.1      74    19.8   786.40   18.11   39.10  
 350   17:10    0.000     999.000     21.5     65     6.1      73    17.7   786.50   18.14   -2.80  
 350   17:20    0.000     999.000     21.4     65     7.8      78    18.1   786.50   18.11   -2.80  
 350   17:30    0.000     999.000     21.2     65     5.8      74    15.2   786.70   18.13    2.80  
 350   17:40    0.000     999.000     21.1     66     6.1      82    15.8   786.90   18.13   -2.70  
 350   17:50    0.000     999.000     21.1     66     5.0      75    13.7   787.40   18.12   -2.80  
 350   18:00    0.000     999.000     21.1     66     5.8      81    15.5   787.60   18.14   72.70  

Return to Central Sierra Snow Lab graphs page.


Western Regional Climate Center,wrcc@dri.edu